sensor_id;sensor_type;location;lat;lon;timestamp;temperature;humidity
10042;DHT22;5061;49.068;12.058;2022-12-18T00:02:34;-3.60;99.90
10042;DHT22;5061;49.068;12.058;2022-12-18T00:05:55;-3.60;99.90
10042;DHT22;5061;49.068;12.058;2022-12-18T00:09:16;-3.60;99.90
10042;DHT22;5061;49.068;12.058;2022-12-18T00:12:36;-3.60;99.90
10042;DHT22;5061;49.068;12.058;2022-12-18T00:16:02;-3.60;99.90
10042;DHT22;5061;49.068;12.058;2022-12-18T00:19:23;-3.70;99.90
10042;DHT22;5061;49.068;12.058;2022-12-18T00:22:47;-3.70;99.90
10042;DHT22;5061;49.068;12.058;2022-12-18T00:26:11;-3.70;99.90
10042;DHT22;5061;49.068;12.058;2022-12-18T00:29:32;-3.70;99.90
10042;DHT22;5061;49.068;12.058;2022-12-18T00:32:52;-3.70;99.90
10042;DHT22;5061;49.068;12.058;2022-12-18T00:36:16;-3.70;99.90
10042;DHT22;5061;49.068;12.058;2022-12-18T00:39:37;-3.70;99.90
10042;DHT22;5061;49.068;12.058;2022-12-18T00:42:58;-3.60;99.90
10042;DHT22;5061;49.068;12.058;2022-12-18T00:46:18;-3.60;99.90
10042;DHT22;5061;49.068;12.058;2022-12-18T00:49:39;-3.60;99.90
10042;DHT22;5061;49.068;12.058;2022-12-18T00:53:00;-3.60;99.90
10042;DHT22;5061;49.068;12.058;2022-12-18T00:56:20;-3.60;99.90
10042;DHT22;5061;49.068;12.058;2022-12-18T00:59:41;-3.50;99.90
10042;DHT22;5061;49.068;12.058;2022-12-18T01:03:05;-3.50;99.90
10042;DHT22;5061;49.068;12.058;2022-12-18T01:06:29;-3.50;99.90
10042;DHT22;5061;49.068;12.058;2022-12-18T01:09:50;-3.50;99.90
10042;DHT22;5061;49.068;12.058;2022-12-18T01:13:10;-3.50;99.90
10042;DHT22;5061;49.068;12.058;2022-12-18T01:16:31;-3.50;99.90
10042;DHT22;5061;49.068;12.058;2022-12-18T01:19:52;-3.50;99.90
10042;DHT22;5061;49.068;12.058;2022-12-18T01:23:12;-3.50;99.90
10042;DHT22;5061;49.068;12.058;2022-12-18T01:26:33;-3.50;99.90
10042;DHT22;5061;49.068;12.058;2022-12-18T01:29:54;-3.50;99.90
10042;DHT22;5061;49.068;12.058;2022-12-18T01:33:14;-3.50;99.90
10042;DHT22;5061;49.068;12.058;2022-12-18T01:36:39;-3.50;99.90
10042;DHT22;5061;49.068;12.058;2022-12-18T01:39:59;-3.50;99.90
10042;DHT22;5061;49.068;12.058;2022-12-18T01:43:20;-3.50;99.90
10042;DHT22;5061;49.068;12.058;2022-12-18T01:46:42;-3.50;99.90
10042;DHT22;5061;49.068;12.058;2022-12-18T01:53:37;-3.50;99.90
10042;DHT22;5061;49.068;12.058;2022-12-18T01:56:58;-3.50;99.90
10042;DHT22;5061;49.068;12.058;2022-12-18T02:00:20;-3.50;99.90
10042;DHT22;5061;49.068;12.058;2022-12-18T02:03:43;-3.40;99.90
10042;DHT22;5061;49.068;12.058;2022-12-18T02:14:32;-3.40;99.90
10042;DHT22;5061;49.068;12.058;2022-12-18T02:18:05;-3.40;99.90
10042;DHT22;5061;49.068;12.058;2022-12-18T02:21:33;-3.40;99.90
10042;DHT22;5061;49.068;12.058;2022-12-18T02:28:55;-3.40;99.90
10042;DHT22;5061;49.068;12.058;2022-12-18T02:32:27;-3.40;99.90
10042;DHT22;5061;49.068;12.058;2022-12-18T02:35:50;-3.40;99.90
10042;DHT22;5061;49.068;12.058;2022-12-18T02:39:13;-3.40;99.90
10042;DHT22;5061;49.068;12.058;2022-12-18T02:42:35;-3.50;99.90
10042;DHT22;5061;49.068;12.058;2022-12-18T02:45:58;-3.50;99.90
10042;DHT22;5061;49.068;12.058;2022-12-18T02:56:28;-3.50;99.90
10042;DHT22;5061;49.068;12.058;2022-12-18T03:00:01;-3.50;99.90
10042;DHT22;5061;49.068;12.058;2022-12-18T03:03:29;-3.50;99.90
10042;DHT22;5061;49.068;12.058;2022-12-18T03:06:58;-3.50;99.90
10042;DHT22;5061;49.068;12.058;2022-12-18T03:10:25;-3.50;99.90
10042;DHT22;5061;49.068;12.058;2022-12-18T03:13:51;-3.50;99.90
10042;DHT22;5061;49.068;12.058;2022-12-18T03:17:15;-3.50;99.90
10042;DHT22;5061;49.068;12.058;2022-12-18T03:20:39;-3.50;99.90
10042;DHT22;5061;49.068;12.058;2022-12-18T03:24:02;-3.50;99.90
10042;DHT22;5061;49.068;12.058;2022-12-18T03:27:26;-3.50;99.90
10042;DHT22;5061;49.068;12.058;2022-12-18T03:30:50;-3.40;99.90
10042;DHT22;5061;49.068;12.058;2022-12-18T03:34:19;-3.40;99.90
10042;DHT22;5061;49.068;12.058;2022-12-18T03:37:42;-3.40;99.90
10042;DHT22;5061;49.068;12.058;2022-12-18T03:48:31;-3.50;99.90
10042;DHT22;5061;49.068;12.058;2022-12-18T03:52:00;-3.50;99.90
10042;DHT22;5061;49.068;12.058;2022-12-18T03:55:22;-3.50;99.90
10042;DHT22;5061;49.068;12.058;2022-12-18T03:58:43;-3.50;99.90
10042;DHT22;5061;49.068;12.058;2022-12-18T04:02:07;-3.50;99.90
10042;DHT22;5061;49.068;12.058;2022-12-18T04:05:29;-3.50;99.90
10042;DHT22;5061;49.068;12.058;2022-12-18T04:08:50;-3.50;99.90
10042;DHT22;5061;49.068;12.058;2022-12-18T04:12:11;-3.50;99.90
10042;DHT22;5061;49.068;12.058;2022-12-18T04:15:34;-3.60;99.90
10042;DHT22;5061;49.068;12.058;2022-12-18T04:18:56;-3.60;99.90
10042;DHT22;5061;49.068;12.058;2022-12-18T04:22:16;-3.60;99.90
10042;DHT22;5061;49.068;12.058;2022-12-18T04:25:37;-3.60;99.90
10042;DHT22;5061;49.068;12.058;2022-12-18T04:28:58;-3.60;99.90
10042;DHT22;5061;49.068;12.058;2022-12-18T04:32:18;-3.50;99.90
10042;DHT22;5061;49.068;12.058;2022-12-18T04:35:40;-3.50;99.90
10042;DHT22;5061;49.068;12.058;2022-12-18T04:39:00;-3.50;99.90
10042;DHT22;5061;49.068;12.058;2022-12-18T04:42:21;-3.50;99.90
10042;DHT22;5061;49.068;12.058;2022-12-18T04:45:42;-3.60;99.90
10042;DHT22;5061;49.068;12.058;2022-12-18T04:49:02;-3.60;99.90
10042;DHT22;5061;49.068;12.058;2022-12-18T04:52:23;-3.70;99.90
10042;DHT22;5061;49.068;12.058;2022-12-18T04:55:43;-3.70;99.90
10042;DHT22;5061;49.068;12.058;2022-12-18T04:59:04;-3.60;99.90
10042;DHT22;5061;49.068;12.058;2022-12-18T05:02:25;-3.70;99.90
10042;DHT22;5061;49.068;12.058;2022-12-18T05:05:49;-3.70;99.90
10042;DHT22;5061;49.068;12.058;2022-12-18T05:09:11;-3.70;99.90
10042;DHT22;5061;49.068;12.058;2022-12-18T05:12:31;-3.70;99.90
10042;DHT22;5061;49.068;12.058;2022-12-18T05:15:53;-3.70;99.90
10042;DHT22;5061;49.068;12.058;2022-12-18T05:19:13;-3.70;99.90
10042;DHT22;5061;49.068;12.058;2022-12-18T05:22:34;-3.70;99.90
10042;DHT22;5061;49.068;12.058;2022-12-18T05:25:59;-3.70;99.90
10042;DHT22;5061;49.068;12.058;2022-12-18T05:29:20;-3.70;99.90
10042;DHT22;5061;49.068;12.058;2022-12-18T05:32:41;-3.70;99.90
10042;DHT22;5061;49.068;12.058;2022-12-18T05:36:03;-3.70;99.90
10042;DHT22;5061;49.068;12.058;2022-12-18T05:39:24;-3.70;99.90
10042;DHT22;5061;49.068;12.058;2022-12-18T05:42:44;-3.70;99.90
10042;DHT22;5061;49.068;12.058;2022-12-18T05:46:07;-3.70;99.90
10042;DHT22;5061;49.068;12.058;2022-12-18T05:49:28;-3.70;99.90
10042;DHT22;5061;49.068;12.058;2022-12-18T05:52:48;-3.70;99.90
10042;DHT22;5061;49.068;12.058;2022-12-18T05:56:12;-3.70;99.90
10042;DHT22;5061;49.068;12.058;2022-12-18T05:59:33;-3.70;99.90
10042;DHT22;5061;49.068;12.058;2022-12-18T06:02:54;-3.70;99.90
10042;DHT22;5061;49.068;12.058;2022-12-18T06:06:23;-3.70;99.90
10042;DHT22;5061;49.068;12.058;2022-12-18T06:09:44;-3.70;99.90
10042;DHT22;5061;49.068;12.058;2022-12-18T06:13:05;-3.70;99.90
10042;DHT22;5061;49.068;12.058;2022-12-18T06:16:27;-3.70;99.90
10042;DHT22;5061;49.068;12.058;2022-12-18T06:19:48;-3.70;99.90
10042;DHT22;5061;49.068;12.058;2022-12-18T06:23:08;-3.70;99.90
10042;DHT22;5061;49.068;12.058;2022-12-18T06:26:29;-3.70;99.90
10042;DHT22;5061;49.068;12.058;2022-12-18T06:29:50;-3.70;99.90
10042;DHT22;5061;49.068;12.058;2022-12-18T06:33:10;-3.70;99.90
10042;DHT22;5061;49.068;12.058;2022-12-18T06:36:31;-3.70;99.90
10042;DHT22;5061;49.068;12.058;2022-12-18T06:39:53;-3.70;99.90
10042;DHT22;5061;49.068;12.058;2022-12-18T06:43:13;-3.80;99.90
10042;DHT22;5061;49.068;12.058;2022-12-18T06:46:34;-3.90;99.90
10042;DHT22;5061;49.068;12.058;2022-12-18T06:49:55;-3.90;99.90
10042;DHT22;5061;49.068;12.058;2022-12-18T06:53:15;-4.00;99.90
10042;DHT22;5061;49.068;12.058;2022-12-18T06:56:36;-4.10;99.90
10042;DHT22;5061;49.068;12.058;2022-12-18T06:59:57;-4.10;99.90
10042;DHT22;5061;49.068;12.058;2022-12-18T07:03:18;-4.00;99.90
10042;DHT22;5061;49.068;12.058;2022-12-18T07:06:38;-4.00;99.90
10042;DHT22;5061;49.068;12.058;2022-12-18T07:09:59;-4.00;99.90
10042;DHT22;5061;49.068;12.058;2022-12-18T07:13:20;-4.00;99.90
10042;DHT22;5061;49.068;12.058;2022-12-18T07:16:40;-4.00;99.90
10042;DHT22;5061;49.068;12.058;2022-12-18T07:20:01;-4.00;99.90
10042;DHT22;5061;49.068;12.058;2022-12-18T07:23:22;-4.00;99.90
10042;DHT22;5061;49.068;12.058;2022-12-18T07:26:42;-4.00;99.90
10042;DHT22;5061;49.068;12.058;2022-12-18T07:30:06;-4.00;99.90
10042;DHT22;5061;49.068;12.058;2022-12-18T07:33:26;-4.00;99.90
10042;DHT22;5061;49.068;12.058;2022-12-18T07:36:47;-4.10;99.90
10042;DHT22;5061;49.068;12.058;2022-12-18T07:40:08;-4.10;99.90
10042;DHT22;5061;49.068;12.058;2022-12-18T07:43:29;-4.10;99.90
10042;DHT22;5061;49.068;12.058;2022-12-18T07:46:49;-4.20;99.90
10042;DHT22;5061;49.068;12.058;2022-12-18T07:50:10;-4.20;99.90
10042;DHT22;5061;49.068;12.058;2022-12-18T07:53:32;-4.10;99.90
10042;DHT22;5061;49.068;12.058;2022-12-18T07:56:53;-4.10;99.90
10042;DHT22;5061;49.068;12.058;2022-12-18T08:00:14;-4.10;99.90
10042;DHT22;5061;49.068;12.058;2022-12-18T08:03:35;-4.10;99.90
10042;DHT22;5061;49.068;12.058;2022-12-18T08:06:56;-4.00;99.90
10042;DHT22;5061;49.068;12.058;2022-12-18T08:10:17;-4.00;99.90
10042;DHT22;5061;49.068;12.058;2022-12-18T08:13:38;-4.00;99.90
10042;DHT22;5061;49.068;12.058;2022-12-18T08:16:58;-4.00;99.90
10042;DHT22;5061;49.068;12.058;2022-12-18T08:20:19;-4.00;99.90
10042;DHT22;5061;49.068;12.058;2022-12-18T08:23:39;-4.00;99.90
10042;DHT22;5061;49.068;12.058;2022-12-18T08:27:00;-4.00;99.90
10042;DHT22;5061;49.068;12.058;2022-12-18T08:30:21;-4.00;99.90
10042;DHT22;5061;49.068;12.058;2022-12-18T08:33:49;-4.00;99.90
10042;DHT22;5061;49.068;12.058;2022-12-18T08:37:10;-4.10;99.90
10042;DHT22;5061;49.068;12.058;2022-12-18T08:40:30;-4.00;99.90
10042;DHT22;5061;49.068;12.058;2022-12-18T08:43:51;-4.00;99.90
10042;DHT22;5061;49.068;12.058;2022-12-18T08:47:30;-4.00;99.90
10042;DHT22;5061;49.068;12.058;2022-12-18T08:50:58;-4.00;99.90
10042;DHT22;5061;49.068;12.058;2022-12-18T08:54:20;-4.00;99.90
10042;DHT22;5061;49.068;12.058;2022-12-18T08:57:41;-4.00;99.90
10042;DHT22;5061;49.068;12.058;2022-12-18T09:01:03;-4.00;99.90
10042;DHT22;5061;49.068;12.058;2022-12-18T09:04:25;-4.00;99.90
10042;DHT22;5061;49.068;12.058;2022-12-18T09:07:45;-4.00;99.90
10042;DHT22;5061;49.068;12.058;2022-12-18T09:11:13;-4.00;99.90
10042;DHT22;5061;49.068;12.058;2022-12-18T09:14:33;-4.00;99.90
10042;DHT22;5061;49.068;12.058;2022-12-18T09:17:54;-4.00;99.90
10042;DHT22;5061;49.068;12.058;2022-12-18T09:21:17;-4.00;99.90
10042;DHT22;5061;49.068;12.058;2022-12-18T09:24:38;-3.90;99.90
10042;DHT22;5061;49.068;12.058;2022-12-18T09:27:59;-4.00;99.90
10042;DHT22;5061;49.068;12.058;2022-12-18T09:31:21;-4.00;99.90
10042;DHT22;5061;49.068;12.058;2022-12-18T09:34:42;-4.00;99.90
10042;DHT22;5061;49.068;12.058;2022-12-18T09:38:03;-4.00;99.90
10042;DHT22;5061;49.068;12.058;2022-12-18T09:45:03;-4.00;99.90
10042;DHT22;5061;49.068;12.058;2022-12-18T09:48:35;-4.00;99.90
10042;DHT22;5061;49.068;12.058;2022-12-18T09:55:43;-4.00;99.90
10042;DHT22;5061;49.068;12.058;2022-12-18T09:59:04;-4.00;99.90
10042;DHT22;5061;49.068;12.058;2022-12-18T10:02:26;-4.00;99.90
10042;DHT22;5061;49.068;12.058;2022-12-18T10:06:05;-4.00;99.90
10042;DHT22;5061;49.068;12.058;2022-12-18T10:09:53;-3.90;99.90
10042;DHT22;5061;49.068;12.058;2022-12-18T10:13:42;-3.90;99.90
10042;DHT22;5061;49.068;12.058;2022-12-18T10:20:53;-3.90;99.90
10042;DHT22;5061;49.068;12.058;2022-12-18T10:28:06;-3.90;99.90
10042;DHT22;5061;49.068;12.058;2022-12-18T10:31:27;-3.90;99.90
10042;DHT22;5061;49.068;12.058;2022-12-18T10:34:50;-3.90;99.90
10042;DHT22;5061;49.068;12.058;2022-12-18T10:41:34;-3.90;99.90
10042;DHT22;5061;49.068;12.058;2022-12-18T10:45:08;-3.90;99.90
10042;DHT22;5061;49.068;12.058;2022-12-18T10:48:31;-3.90;99.90
10042;DHT22;5061;49.068;12.058;2022-12-18T10:52:07;-3.90;99.90
10042;DHT22;5061;49.068;12.058;2022-12-18T10:55:33;-3.90;99.90
10042;DHT22;5061;49.068;12.058;2022-12-18T10:59:06;-3.80;99.90
10042;DHT22;5061;49.068;12.058;2022-12-18T11:02:36;-3.80;99.90
10042;DHT22;5061;49.068;12.058;2022-12-18T11:06:18;-3.80;99.90
10042;DHT22;5061;49.068;12.058;2022-12-18T11:09:41;-3.80;99.90
10042;DHT22;5061;49.068;12.058;2022-12-18T11:13:10;-3.70;99.90
10042;DHT22;5061;49.068;12.058;2022-12-18T11:16:42;-3.70;99.90
10042;DHT22;5061;49.068;12.058;2022-12-18T11:20:48;-3.70;99.90
10042;DHT22;5061;49.068;12.058;2022-12-18T11:24:02;-3.70;99.90
10042;DHT22;5061;49.068;12.058;2022-12-18T11:27:22;-3.70;99.90
10042;DHT22;5061;49.068;12.058;2022-12-18T11:30:43;-3.70;99.90
10042;DHT22;5061;49.068;12.058;2022-12-18T11:34:05;-3.70;99.90
10042;DHT22;5061;49.068;12.058;2022-12-18T11:37:31;-3.70;99.90
10042;DHT22;5061;49.068;12.058;2022-12-18T11:48:54;-3.80;99.90
10042;DHT22;5061;49.068;12.058;2022-12-18T11:52:36;-3.80;99.90
10042;DHT22;5061;49.068;12.058;2022-12-18T11:56:05;-3.70;99.90
10042;DHT22;5061;49.068;12.058;2022-12-18T12:00:16;-3.70;99.90
10042;DHT22;5061;49.068;12.058;2022-12-18T12:25:37;-3.60;99.90
10042;DHT22;5061;49.068;12.058;2022-12-18T12:29:36;-3.60;99.90
10042;DHT22;5061;49.068;12.058;2022-12-18T12:40:06;-3.60;99.90
10042;DHT22;5061;49.068;12.058;2022-12-18T12:46:52;-3.70;99.90
10042;DHT22;5061;49.068;12.058;2022-12-18T12:50:18;-3.60;99.90
10042;DHT22;5061;49.068;12.058;2022-12-18T12:53:40;-3.60;99.90
10042;DHT22;5061;49.068;12.058;2022-12-18T12:57:15;-3.60;99.90
10042;DHT22;5061;49.068;12.058;2022-12-18T13:01:04;-3.60;99.90
10042;DHT22;5061;49.068;12.058;2022-12-18T13:04:42;-3.60;99.90
10042;DHT22;5061;49.068;12.058;2022-12-18T13:08:10;-3.60;99.90
10042;DHT22;5061;49.068;12.058;2022-12-18T13:11:42;-3.60;99.90
10042;DHT22;5061;49.068;12.058;2022-12-18T13:15:37;-3.60;99.90
10042;DHT22;5061;49.068;12.058;2022-12-18T13:19:00;-3.60;99.90
10042;DHT22;5061;49.068;12.058;2022-12-18T13:22:28;-3.50;99.90
10042;DHT22;5061;49.068;12.058;2022-12-18T13:29:40;-3.50;99.90
10042;DHT22;5061;49.068;12.058;2022-12-18T13:36:34;-3.40;99.90
10042;DHT22;5061;49.068;12.058;2022-12-18T13:39:54;-3.40;99.90
10042;DHT22;5061;49.068;12.058;2022-12-18T13:46:46;-3.40;99.90
10042;DHT22;5061;49.068;12.058;2022-12-18T13:50:21;-3.40;99.90
10042;DHT22;5061;49.068;12.058;2022-12-18T13:53:46;-3.40;99.90
10042;DHT22;5061;49.068;12.058;2022-12-18T13:57:43;-3.40;99.90
10042;DHT22;5061;49.068;12.058;2022-12-18T14:01:04;-3.50;99.90
10042;DHT22;5061;49.068;12.058;2022-12-18T14:04:30;-3.50;99.90
10042;DHT22;5061;49.068;12.058;2022-12-18T14:07:52;-3.50;99.90
10042;DHT22;5061;49.068;12.058;2022-12-18T14:11:20;-3.50;99.90
10042;DHT22;5061;49.068;12.058;2022-12-18T14:14:48;-3.50;99.90
10042;DHT22;5061;49.068;12.058;2022-12-18T14:21:55;-3.50;99.90
10042;DHT22;5061;49.068;12.058;2022-12-18T14:25:22;-3.50;99.90
10042;DHT22;5061;49.068;12.058;2022-12-18T14:28:44;-3.60;99.90
10042;DHT22;5061;49.068;12.058;2022-12-18T14:32:15;-3.60;99.90
10042;DHT22;5061;49.068;12.058;2022-12-18T14:35:52;-3.50;99.90
10042;DHT22;5061;49.068;12.058;2022-12-18T14:39:17;-3.60;99.90
10042;DHT22;5061;49.068;12.058;2022-12-18T14:42:38;-3.60;99.90
10042;DHT22;5061;49.068;12.058;2022-12-18T14:45:59;-3.60;99.90
10042;DHT22;5061;49.068;12.058;2022-12-18T14:49:30;-3.60;99.90
10042;DHT22;5061;49.068;12.058;2022-12-18T14:52:52;-3.60;99.90
10042;DHT22;5061;49.068;12.058;2022-12-18T14:56:33;-3.60;99.90
10042;DHT22;5061;49.068;12.058;2022-12-18T15:00:06;-3.70;99.90
10042;DHT22;5061;49.068;12.058;2022-12-18T15:03:27;-3.70;99.90
10042;DHT22;5061;49.068;12.058;2022-12-18T15:06:48;-3.70;99.90
10042;DHT22;5061;49.068;12.058;2022-12-18T15:13:40;-3.70;99.90
10042;DHT22;5061;49.068;12.058;2022-12-18T15:17:03;-3.70;99.90
10042;DHT22;5061;49.068;12.058;2022-12-18T15:20:25;-3.70;99.90
10042;DHT22;5061;49.068;12.058;2022-12-18T15:23:50;-3.70;99.90
10042;DHT22;5061;49.068;12.058;2022-12-18T15:27:28;-3.70;99.90
10042;DHT22;5061;49.068;12.058;2022-12-18T15:34:24;-3.70;99.90
10042;DHT22;5061;49.068;12.058;2022-12-18T15:37:45;-3.70;99.90
10042;DHT22;5061;49.068;12.058;2022-12-18T15:41:11;-3.70;99.90
10042;DHT22;5061;49.068;12.058;2022-12-18T15:44:33;-3.70;99.90
10042;DHT22;5061;49.068;12.058;2022-12-18T15:47:54;-3.70;99.90
10042;DHT22;5061;49.068;12.058;2022-12-18T15:51:17;-3.80;99.90
10042;DHT22;5061;49.068;12.058;2022-12-18T15:54:38;-3.80;99.90
10042;DHT22;5061;49.068;12.058;2022-12-18T15:58:28;-3.80;99.90
10042;DHT22;5061;49.068;12.058;2022-12-18T16:01:50;-3.80;99.90
10042;DHT22;5061;49.068;12.058;2022-12-18T16:05:16;-3.80;99.90
10042;DHT22;5061;49.068;12.058;2022-12-18T16:08:37;-3.80;99.90
10042;DHT22;5061;49.068;12.058;2022-12-18T16:11:58;-3.80;99.90
10042;DHT22;5061;49.068;12.058;2022-12-18T16:15:19;-3.80;99.90
10042;DHT22;5061;49.068;12.058;2022-12-18T16:18:39;-3.90;99.90
10042;DHT22;5061;49.068;12.058;2022-12-18T16:22:00;-3.90;99.90
10042;DHT22;5061;49.068;12.058;2022-12-18T16:25:28;-3.90;99.90
10042;DHT22;5061;49.068;12.058;2022-12-18T16:28:52;-3.90;99.90
10042;DHT22;5061;49.068;12.058;2022-12-18T16:32:16;-3.90;99.90
10042;DHT22;5061;49.068;12.058;2022-12-18T16:35:37;-4.00;99.90
10042;DHT22;5061;49.068;12.058;2022-12-18T16:38:58;-4.00;99.90
10042;DHT22;5061;49.068;12.058;2022-12-18T16:42:19;-4.00;99.90
10042;DHT22;5061;49.068;12.058;2022-12-18T16:45:40;-4.00;99.90
10042;DHT22;5061;49.068;12.058;2022-12-18T16:49:00;-4.00;99.90
10042;DHT22;5061;49.068;12.058;2022-12-18T16:52:21;-4.00;99.90
10042;DHT22;5061;49.068;12.058;2022-12-18T16:55:42;-4.00;99.90
10042;DHT22;5061;49.068;12.058;2022-12-18T16:59:03;-4.10;99.90
10042;DHT22;5061;49.068;12.058;2022-12-18T17:02:25;-4.10;99.90
10042;DHT22;5061;49.068;12.058;2022-12-18T17:05:46;-4.10;99.90
10042;DHT22;5061;49.068;12.058;2022-12-18T17:09:10;-4.10;99.90
10042;DHT22;5061;49.068;12.058;2022-12-18T17:12:31;-4.10;99.90
10042;DHT22;5061;49.068;12.058;2022-12-18T17:15:51;-4.10;99.90
10042;DHT22;5061;49.068;12.058;2022-12-18T17:19:13;-4.20;99.90
10042;DHT22;5061;49.068;12.058;2022-12-18T17:22:36;-4.20;99.90
10042;DHT22;5061;49.068;12.058;2022-12-18T17:25:58;-4.20;99.90
10042;DHT22;5061;49.068;12.058;2022-12-18T17:29:19;-4.20;99.90
10042;DHT22;5061;49.068;12.058;2022-12-18T17:32:40;-4.30;99.90
10042;DHT22;5061;49.068;12.058;2022-12-18T17:36:01;-4.30;99.90
10042;DHT22;5061;49.068;12.058;2022-12-18T17:39:21;-4.30;99.90
10042;DHT22;5061;49.068;12.058;2022-12-18T17:42:42;-4.40;99.90
10042;DHT22;5061;49.068;12.058;2022-12-18T17:46:04;-4.40;99.90
10042;DHT22;5061;49.068;12.058;2022-12-18T17:49:25;-4.40;99.90
10042;DHT22;5061;49.068;12.058;2022-12-18T17:52:46;-4.50;99.90
10042;DHT22;5061;49.068;12.058;2022-12-18T17:56:08;-4.50;99.90
10042;DHT22;5061;49.068;12.058;2022-12-18T17:59:29;-4.50;99.90
10042;DHT22;5061;49.068;12.058;2022-12-18T18:02:49;-4.50;99.90
10042;DHT22;5061;49.068;12.058;2022-12-18T18:06:10;-4.60;99.90
10042;DHT22;5061;49.068;12.058;2022-12-18T18:09:31;-4.60;99.90
10042;DHT22;5061;49.068;12.058;2022-12-18T18:12:51;-4.60;99.90
10042;DHT22;5061;49.068;12.058;2022-12-18T18:16:39;-4.70;99.90
10042;DHT22;5061;49.068;12.058;2022-12-18T18:20:00;-4.70;99.90
10042;DHT22;5061;49.068;12.058;2022-12-18T18:23:21;-4.70;99.90
10042;DHT22;5061;49.068;12.058;2022-12-18T18:26:42;-4.70;99.90
10042;DHT22;5061;49.068;12.058;2022-12-18T18:30:02;-4.70;99.90
10042;DHT22;5061;49.068;12.058;2022-12-18T18:33:23;-4.80;99.90
10042;DHT22;5061;49.068;12.058;2022-12-18T18:36:44;-4.80;99.90
10042;DHT22;5061;49.068;12.058;2022-12-18T18:40:05;-4.80;99.90
10042;DHT22;5061;49.068;12.058;2022-12-18T18:43:26;-4.90;99.90
10042;DHT22;5061;49.068;12.058;2022-12-18T18:46:47;-4.90;99.90
10042;DHT22;5061;49.068;12.058;2022-12-18T18:50:08;-4.90;99.90
10042;DHT22;5061;49.068;12.058;2022-12-18T18:53:39;-5.00;99.90
10042;DHT22;5061;49.068;12.058;2022-12-18T18:57:00;-5.00;99.90
10042;DHT22;5061;49.068;12.058;2022-12-18T19:00:21;-5.00;99.90
10042;DHT22;5061;49.068;12.058;2022-12-18T19:03:42;-5.00;99.90
10042;DHT22;5061;49.068;12.058;2022-12-18T19:07:06;-5.10;99.90
10042;DHT22;5061;49.068;12.058;2022-12-18T19:10:26;-5.10;99.90
10042;DHT22;5061;49.068;12.058;2022-12-18T19:13:47;-5.10;99.90
10042;DHT22;5061;49.068;12.058;2022-12-18T19:17:08;-5.10;99.90
10042;DHT22;5061;49.068;12.058;2022-12-18T19:20:28;-5.10;99.90
10042;DHT22;5061;49.068;12.058;2022-12-18T19:23:49;-5.10;99.90
10042;DHT22;5061;49.068;12.058;2022-12-18T19:27:10;-5.10;99.90
10042;DHT22;5061;49.068;12.058;2022-12-18T19:30:31;-5.10;99.90
10042;DHT22;5061;49.068;12.058;2022-12-18T19:33:52;-5.10;99.90
10042;DHT22;5061;49.068;12.058;2022-12-18T19:37:13;-5.10;99.90
10042;DHT22;5061;49.068;12.058;2022-12-18T19:40:33;-5.10;99.90
10042;DHT22;5061;49.068;12.058;2022-12-18T19:43:54;-5.10;99.90
10042;DHT22;5061;49.068;12.058;2022-12-18T19:47:15;-5.10;99.90
10042;DHT22;5061;49.068;12.058;2022-12-18T19:50:40;-5.10;99.90
10042;DHT22;5061;49.068;12.058;2022-12-18T19:54:01;-5.20;99.90
10042;DHT22;5061;49.068;12.058;2022-12-18T19:57:22;-5.20;99.90
10042;DHT22;5061;49.068;12.058;2022-12-18T20:00:42;-5.20;99.90
10042;DHT22;5061;49.068;12.058;2022-12-18T20:04:03;-5.10;99.90
10042;DHT22;5061;49.068;12.058;2022-12-18T20:07:23;-5.20;99.90
10042;DHT22;5061;49.068;12.058;2022-12-18T20:10:44;-5.20;99.90
10042;DHT22;5061;49.068;12.058;2022-12-18T20:14:09;-5.20;99.90
10042;DHT22;5061;49.068;12.058;2022-12-18T20:17:30;-5.20;99.90
10042;DHT22;5061;49.068;12.058;2022-12-18T20:20:51;-5.20;99.90
10042;DHT22;5061;49.068;12.058;2022-12-18T20:24:11;-5.20;99.90
10042;DHT22;5061;49.068;12.058;2022-12-18T20:27:32;-5.20;99.90
10042;DHT22;5061;49.068;12.058;2022-12-18T20:31:04;-5.20;99.90
10042;DHT22;5061;49.068;12.058;2022-12-18T20:34:27;-5.20;99.90
10042;DHT22;5061;49.068;12.058;2022-12-18T20:37:48;-5.10;99.90
10042;DHT22;5061;49.068;12.058;2022-12-18T20:41:11;-5.10;99.90
10042;DHT22;5061;49.068;12.058;2022-12-18T20:44:32;-5.10;99.90
10042;DHT22;5061;49.068;12.058;2022-12-18T20:47:53;-5.10;99.90
10042;DHT22;5061;49.068;12.058;2022-12-18T20:51:17;-5.10;99.90
10042;DHT22;5061;49.068;12.058;2022-12-18T20:54:38;-5.10;99.90
10042;DHT22;5061;49.068;12.058;2022-12-18T20:58:01;-5.10;99.90
10042;DHT22;5061;49.068;12.058;2022-12-18T21:01:22;-5.00;99.90
10042;DHT22;5061;49.068;12.058;2022-12-18T21:04:43;-5.00;99.90
10042;DHT22;5061;49.068;12.058;2022-12-18T21:08:03;-5.00;99.90
10042;DHT22;5061;49.068;12.058;2022-12-18T21:11:28;-5.00;99.90
10042;DHT22;5061;49.068;12.058;2022-12-18T21:15:08;-4.90;99.90
10042;DHT22;5061;49.068;12.058;2022-12-18T21:18:29;-4.90;99.90
10042;DHT22;5061;49.068;12.058;2022-12-18T21:21:50;-4.90;99.90
10042;DHT22;5061;49.068;12.058;2022-12-18T21:25:14;-4.90;99.90
10042;DHT22;5061;49.068;12.058;2022-12-18T21:28:35;-4.90;99.90
10042;DHT22;5061;49.068;12.058;2022-12-18T21:31:56;-4.90;99.90
10042;DHT22;5061;49.068;12.058;2022-12-18T21:35:16;-4.80;99.90
10042;DHT22;5061;49.068;12.058;2022-12-18T21:38:37;-4.80;99.90
10042;DHT22;5061;49.068;12.058;2022-12-18T21:41:58;-4.90;99.90
10042;DHT22;5061;49.068;12.058;2022-12-18T21:45:37;-4.80;99.90
10042;DHT22;5061;49.068;12.058;2022-12-18T21:48:58;-4.80;99.90
10042;DHT22;5061;49.068;12.058;2022-12-18T21:52:20;-4.80;99.90
10042;DHT22;5061;49.068;12.058;2022-12-18T21:55:41;-4.80;99.90
10042;DHT22;5061;49.068;12.058;2022-12-18T21:59:01;-4.80;99.90
10042;DHT22;5061;49.068;12.058;2022-12-18T22:02:22;-4.80;99.90
10042;DHT22;5061;49.068;12.058;2022-12-18T22:05:46;-4.80;99.90
10042;DHT22;5061;49.068;12.058;2022-12-18T22:09:08;-4.80;99.90
10042;DHT22;5061;49.068;12.058;2022-12-18T22:12:29;-4.80;99.90
10042;DHT22;5061;49.068;12.058;2022-12-18T22:15:56;-4.80;99.90
10042;DHT22;5061;49.068;12.058;2022-12-18T22:19:17;-4.80;99.90
10042;DHT22;5061;49.068;12.058;2022-12-18T22:22:38;-4.80;99.90
10042;DHT22;5061;49.068;12.058;2022-12-18T22:25:58;-4.80;99.90
10042;DHT22;5061;49.068;12.058;2022-12-18T22:29:23;-4.80;99.90
10042;DHT22;5061;49.068;12.058;2022-12-18T22:33:02;-4.80;99.90
10042;DHT22;5061;49.068;12.058;2022-12-18T22:36:23;-4.70;99.90
10042;DHT22;5061;49.068;12.058;2022-12-18T22:39:44;-4.70;99.90
10042;DHT22;5061;49.068;12.058;2022-12-18T22:43:05;-4.70;99.90
10042;DHT22;5061;49.068;12.058;2022-12-18T22:46:29;-4.70;99.90
10042;DHT22;5061;49.068;12.058;2022-12-18T22:49:51;-4.70;99.90
10042;DHT22;5061;49.068;12.058;2022-12-18T22:53:11;-4.70;99.90
10042;DHT22;5061;49.068;12.058;2022-12-18T22:56:32;-4.70;99.90
10042;DHT22;5061;49.068;12.058;2022-12-18T22:59:53;-4.70;99.90
10042;DHT22;5061;49.068;12.058;2022-12-18T23:03:13;-4.70;99.90
10042;DHT22;5061;49.068;12.058;2022-12-18T23:06:34;-4.70;99.90
10042;DHT22;5061;49.068;12.058;2022-12-18T23:09:54;-4.70;99.90
10042;DHT22;5061;49.068;12.058;2022-12-18T23:13:15;-4.70;99.90
10042;DHT22;5061;49.068;12.058;2022-12-18T23:16:35;-4.70;99.90